createdAt,value
2022-08-05T00:02:27.843Z,4.22
2022-08-05T00:04:56.140Z,4.93
2022-08-05T00:07:59.299Z,8.95
2022-08-05T00:10:11.105Z,4.28
2022-08-05T00:12:48.498Z,3.28
2022-08-05T00:15:56.202Z,8.90
2022-08-05T00:18:21.378Z,3.47
2022-08-05T00:20:50.554Z,6.38
2022-08-05T00:23:44.765Z,6.13
2022-08-05T00:26:06.085Z,6.65
2022-08-05T00:28:33.327Z,6.93
2022-08-05T00:31:02.997Z,7.78
2022-08-05T00:34:53.875Z,4.90
2022-08-05T00:37:10.380Z,8.15
2022-08-05T00:39:06.171Z,7.70
2022-08-05T00:41:51.994Z,7.88
2022-08-05T00:44:30.862Z,11.57
2022-08-05T00:47:02.150Z,7.47
2022-08-05T00:49:32.626Z,4.85
2022-08-05T00:52:00.392Z,6.20
2022-08-05T00:54:28.123Z,8.02
2022-08-05T00:56:57.227Z,8.57
2022-08-05T00:59:24.049Z,7.80
2022-08-05T01:01:51.429Z,16.13
2022-08-05T01:04:19.994Z,8.35
2022-08-05T01:06:53.544Z,9.85
2022-08-05T01:09:22.162Z,8.95
2022-08-05T01:11:53.980Z,9.50
2022-08-05T01:14:35.433Z,6.82
2022-08-05T01:17:20.590Z,6.85
2022-08-05T01:20:13.825Z,10.00
2022-08-05T01:23:23.747Z,13.85
2022-08-05T01:26:04.383Z,9.05
2022-08-05T01:28:54.116Z,14.23
2022-08-05T01:31:45.040Z,14.25
2022-08-05T01:34:22.354Z,16.60
2022-08-05T01:37:10.610Z,13.27
2022-08-05T01:39:54.825Z,9.98
2022-08-05T01:42:27.984Z,10.10
2022-08-05T01:44:57.324Z,15.70
2022-08-05T01:47:38.695Z,12.98
2022-08-05T01:50:15.133Z,10.98
2022-08-05T01:52:49.870Z,13.00
2022-08-05T01:55:21.176Z,16.15
2022-08-05T01:58:29.499Z,14.88
2022-08-05T02:00:42.410Z,8.75
2022-08-05T02:06:03.535Z,9.23
2022-08-05T02:08:57.950Z,14.50
2022-08-05T02:11:32.742Z,9.18
2022-08-05T02:14:17.752Z,11.50
2022-08-05T02:16:52.976Z,9.75
2022-08-05T02:19:36.345Z,14.65
2022-08-05T02:22:27.287Z,10.47
2022-08-05T02:25:03.776Z,9.30
2022-08-05T02:27:59.442Z,9.82
2022-08-05T02:30:26.938Z,5.90
2022-08-05T02:32:55.978Z,9.65
2022-08-05T02:35:32.970Z,8.48
2022-08-05T02:38:02.338Z,7.82
2022-08-05T02:40:30.951Z,13.00
2022-08-05T02:43:00.516Z,15.45
2022-08-05T02:45:51.405Z,16.83
2022-08-05T02:48:17.448Z,13.05
2022-08-05T02:50:47.330Z,16.77
2022-08-05T02:53:16.086Z,11.52
2022-08-05T02:55:54.399Z,10.65
2022-08-05T02:58:28.885Z,10.50
2022-08-05T03:01:01.884Z,14.07
2022-08-05T03:03:33.861Z,12.50
2022-08-05T03:06:56.815Z,11.07
2022-08-05T03:09:05.151Z,14.40
2022-08-05T03:11:53.400Z,12.95
2022-08-05T03:14:21.407Z,8.45
2022-08-05T03:16:48.181Z,12.10
2022-08-05T03:19:20.251Z,11.25
2022-08-05T03:22:01.561Z,7.85
2022-08-05T03:24:30.836Z,11.63
2022-08-05T03:26:59.974Z,8.93
2022-08-05T03:29:45.200Z,11.70
2022-08-05T03:32:19.439Z,10.63
2022-08-05T03:34:51.047Z,12.35
2022-08-05T03:37:19.993Z,12.25
2022-08-05T03:39:59.214Z,15.75
2022-08-05T03:42:29.200Z,11.77
2022-08-05T03:44:58.887Z,11.38
2022-08-05T03:47:30.498Z,11.57
2022-08-05T03:50:02.365Z,12.50
2022-08-05T03:54:59.406Z,8.32
2022-08-05T03:56:04.637Z,10.35
2022-08-05T03:58:29.213Z,11.48
2022-08-05T04:00:58.075Z,12.68
2022-08-05T04:03:29.461Z,13.77
2022-08-05T04:05:57.653Z,11.48
2022-08-05T04:08:35.327Z,16.48
2022-08-05T04:11:07.498Z,10.48
2022-08-05T04:13:50.051Z,8.95
2022-08-05T04:16:24.166Z,9.52
2022-08-05T04:18:54.441Z,13.13
2022-08-05T04:22:09.702Z,10.60
2022-08-05T04:24:18.633Z,13.95
2022-08-05T04:26:46.779Z,15.57
2022-08-05T04:29:14.371Z,14.57
2022-08-05T04:31:41.441Z,13.15
2022-08-05T04:34:31.728Z,10.32
2022-08-05T04:36:56.759Z,12.48
2022-08-05T04:39:23.946Z,12.25
2022-08-05T04:41:51.809Z,13.27
2022-08-05T04:44:28.975Z,14.80
2022-08-05T04:46:59.071Z,12.27
2022-08-05T04:49:38.767Z,14.68
2022-08-05T04:52:14.341Z,14.65
2022-08-05T04:54:41.933Z,12.88
2022-08-05T04:57:08.747Z,17.58
2022-08-05T04:59:39.261Z,19.65
2022-08-05T05:02:36.870Z,20.38
2022-08-05T05:05:02.344Z,17.90
2022-08-05T05:07:32.721Z,14.23
2022-08-05T05:10:05.341Z,15.50
2022-08-05T05:12:33.378Z,14.93
2022-08-05T05:15:03.874Z,15.15
2022-08-05T05:17:57.067Z,14.50
2022-08-05T05:20:28.624Z,13.85
2022-08-05T05:23:03.136Z,20.55
2022-08-05T05:25:40.910Z,14.88
2022-08-05T05:28:09.376Z,18.73
2022-08-05T05:30:36.677Z,15.93
2022-08-05T05:33:16.278Z,14.63
2022-08-05T05:35:48.099Z,14.30
2022-08-05T05:38:22.601Z,13.10
2022-08-05T05:40:56.104Z,12.35
2022-08-05T05:46:21.754Z,11.30
2022-08-05T05:48:49.190Z,15.52
2022-08-05T05:51:24.421Z,10.00
2022-08-05T05:53:58.935Z,14.77
2022-08-05T05:56:33.138Z,12.02
2022-08-05T05:59:05.696Z,15.02
2022-08-05T06:01:41.311Z,14.65
2022-08-05T06:04:25.135Z,10.25
2022-08-05T06:06:52.068Z,15.00
2022-08-05T06:09:25.733Z,9.63
2022-08-05T06:12:06.388Z,12.48
2022-08-05T06:14:36.451Z,10.05
2022-08-05T06:17:22.237Z,10.65
2022-08-05T06:19:56.722Z,12.88
2022-08-05T06:22:34.642Z,10.45
2022-08-05T06:25:24.243Z,8.32
2022-08-05T06:28:10.905Z,7.70
2022-08-05T06:30:39.805Z,8.07
2022-08-05T06:33:10.001Z,8.13
2022-08-05T06:36:07.898Z,16.80
2022-08-05T06:38:36.543Z,11.50
2022-08-05T06:41:05.468Z,14.43
2022-08-05T06:43:57.867Z,33.10
2022-08-05T06:46:21.742Z,12.55
2022-08-05T06:48:56.780Z,9.82
2022-08-05T06:51:30.254Z,8.88
2022-08-05T06:53:59.426Z,7.43
2022-08-05T06:56:34.629Z,15.18
2022-08-05T06:59:08.538Z,11.75
2022-08-05T07:01:36.923Z,7.93
2022-08-05T07:04:03.973Z,9.82
2022-08-05T07:06:31.845Z,7.90
2022-08-05T07:08:59.861Z,8.35
2022-08-05T07:11:32.572Z,13.20
2022-08-05T07:14:28.939Z,7.93
2022-08-05T07:18:01.764Z,14.82
2022-08-05T07:22:35.901Z,9.65
2022-08-05T07:25:22.182Z,9.50
2022-08-05T07:27:58.073Z,8.45
2022-08-05T07:30:38.182Z,9.38
2022-08-05T07:33:15.543Z,9.35
2022-08-05T07:36:03.138Z,7.20
2022-08-05T07:38:34.727Z,6.75
2022-08-05T07:42:09.547Z,10.70
2022-08-05T07:43:56.917Z,8.10
2022-08-05T07:46:26.396Z,7.68
2022-08-05T07:49:02.985Z,7.70
2022-08-05T07:51:40.856Z,8.70
2022-08-05T07:54:15.635Z,5.78
2022-08-05T07:57:13.546Z,11.50
2022-08-05T07:59:38.311Z,5.90
2022-08-05T08:02:16.827Z,7.53
2022-08-05T08:04:49.388Z,8.30
2022-08-05T08:07:22.490Z,9.88
2022-08-05T08:09:52.618Z,7.65
2022-08-05T08:12:36.960Z,7.75
2022-08-05T08:15:09.742Z,7.53
2022-08-05T08:17:49.826Z,6.07
2022-08-05T08:21:00.472Z,12.10
2022-08-05T08:23:11.568Z,7.35
2022-08-05T08:26:00.163Z,5.55
2022-08-05T08:28:37.169Z,6.97
2022-08-05T08:31:06.475Z,7.90
2022-08-05T08:33:37.478Z,7.28
2022-08-05T08:36:38.872Z,7.40
2022-08-05T08:38:55.723Z,9.20
2022-08-05T08:41:26.185Z,7.07
2022-08-05T08:45:18.980Z,6.18
2022-08-05T08:47:47.472Z,5.95
2022-08-05T08:50:05.992Z,3.38
2022-08-05T08:52:51.452Z,6.10
2022-08-05T08:56:02.051Z,6.57
2022-08-05T08:58:06.918Z,6.30
2022-08-05T09:00:36.284Z,4.80
2022-08-05T09:03:06.464Z,3.97
2022-08-05T09:05:38.231Z,4.28
2022-08-05T09:08:26.710Z,5.22
2022-08-05T09:10:54.529Z,6.57
2022-08-05T09:13:21.465Z,5.30
2022-08-05T09:15:51.344Z,7.13
2022-08-05T09:18:18.375Z,5.60
2022-08-05T09:20:45.892Z,6.53
2022-08-05T09:23:21.539Z,5.15
2022-08-05T09:26:09.137Z,4.15
2022-08-05T09:28:39.355Z,6.05
2022-08-05T09:31:43.624Z,5.85
2022-08-05T09:34:06.707Z,6.50
2022-08-05T09:36:55.805Z,6.80
2022-08-05T09:39:39.137Z,6.20
2022-08-05T09:42:24.323Z,3.65
2022-08-05T09:44:57.365Z,4.45
2022-08-05T09:47:55.542Z,4.47
2022-08-05T09:50:44.039Z,5.55
2022-08-05T09:53:23.055Z,6.75
2022-08-05T09:56:04.808Z,4.32
2022-08-05T09:58:41.735Z,5.43
2022-08-05T10:01:15.084Z,5.00
2022-08-05T10:04:04.457Z,7.88
2022-08-05T10:06:40.424Z,4.93
2022-08-05T10:09:24.947Z,3.92
2022-08-05T10:11:54.776Z,4.32
2022-08-05T10:14:32.583Z,4.93
2022-08-05T10:17:38.006Z,4.53
2022-08-05T10:20:03.663Z,4.80
2022-08-05T10:22:38.036Z,4.97
2022-08-05T10:25:10.279Z,6.88
2022-08-05T10:28:13.551Z,5.75
2022-08-05T10:31:21.066Z,4.88
2022-08-05T10:33:17.136Z,5.90
2022-08-05T10:35:48.619Z,3.83
2022-08-05T10:38:29.061Z,3.72
2022-08-05T10:41:29.060Z,5.90
2022-08-05T10:44:18.557Z,2.88
2022-08-05T10:46:54.211Z,3.25
2022-08-05T10:49:27.178Z,4.18
2022-08-05T10:52:03.344Z,5.10
2022-08-05T10:55:05.228Z,3.03
2022-08-05T10:57:34.218Z,4.00
2022-08-05T11:00:29.763Z,6.18
2022-08-05T11:03:23.181Z,6.15
2022-08-05T11:06:15.631Z,5.93
2022-08-05T11:09:32.090Z,3.28
2022-08-05T11:12:54.424Z,3.60
2022-08-05T11:15:59.247Z,7.10
2022-08-05T11:18:34.068Z,4.88
2022-08-05T11:21:02.871Z,5.80
2022-08-05T11:24:04.963Z,2.88
2022-08-05T11:26:40.406Z,3.53
2022-08-05T11:29:40.161Z,3.38
2022-08-05T11:32:29.022Z,5.18
2022-08-05T11:34:57.497Z,6.85
2022-08-05T11:38:28.477Z,4.45
2022-08-05T11:41:03.437Z,5.40
2022-08-05T11:44:07.597Z,5.50
2022-08-05T11:46:58.354Z,3.95
2022-08-05T11:49:33.993Z,3.63
2022-08-05T11:52:01.472Z,6.03
2022-08-05T11:54:38.040Z,3.92
2022-08-05T11:57:08.234Z,4.57
2022-08-05T11:59:52.517Z,5.60
2022-08-05T12:02:31.510Z,2.78
2022-08-05T12:05:08.233Z,4.40
2022-08-05T12:08:09.100Z,6.35
2022-08-05T12:10:43.651Z,7.40
2022-08-05T12:13:18.485Z,2.70
2022-08-05T12:16:02.290Z,4.32
2022-08-05T12:18:34.264Z,5.22
2022-08-05T12:21:19.990Z,5.53
2022-08-05T12:24:07.020Z,4.35
2022-08-05T12:26:52.749Z,3.45
2022-08-05T12:29:22.747Z,3.83
2022-08-05T12:31:56.054Z,4.03
2022-08-05T12:34:35.754Z,2.17
2022-08-05T12:37:17.672Z,5.30
2022-08-05T12:39:51.340Z,4.88
2022-08-05T12:42:21.008Z,2.05
2022-08-05T12:44:48.755Z,3.47
2022-08-05T12:47:30.465Z,3.03
2022-08-05T12:50:03.970Z,2.08
2022-08-05T12:52:39.246Z,3.33
2022-08-05T12:55:23.613Z,4.45
2022-08-05T12:58:48.494Z,2.10
2022-08-05T13:02:00.105Z,4.00
2022-08-05T13:03:42.169Z,4.30
2022-08-05T13:06:19.742Z,2.85
2022-08-05T13:08:52.482Z,2.45
2022-08-05T13:12:01.631Z,3.50
2022-08-05T13:14:24.776Z,1.92
2022-08-05T13:17:09.897Z,4.47
2022-08-05T13:19:40.463Z,1.50
2022-08-05T13:22:27.676Z,2.72
2022-08-05T13:24:58.148Z,2.22
2022-08-05T13:27:38.218Z,1.70
2022-08-05T13:30:35.747Z,2.53
2022-08-05T13:33:02.155Z,3.20
2022-08-05T13:35:42.733Z,1.55
2022-08-05T13:38:20.441Z,1.98
2022-08-05T13:40:57.050Z,2.33
2022-08-05T13:43:23.880Z,1.33
2022-08-05T13:46:11.749Z,3.15
2022-08-05T13:48:57.717Z,1.08
2022-08-05T13:51:29.574Z,1.80
2022-08-05T13:54:03.518Z,1.40
2022-08-05T13:56:45.382Z,3.50
2022-08-05T13:59:21.156Z,2.58
2022-08-05T14:01:58.383Z,1.48
2022-08-05T14:04:53.892Z,2.53
2022-08-05T14:08:00.479Z,3.03
2022-08-05T14:10:18.641Z,8.55
2022-08-05T14:12:54.880Z,3.25
2022-08-05T14:16:08.020Z,1.45
2022-08-05T14:18:17.716Z,1.27
2022-08-05T14:20:47.875Z,2.53
2022-08-05T14:23:24.687Z,2.22
2022-08-05T14:25:58.436Z,2.63
2022-08-05T14:28:28.579Z,3.97
2022-08-05T14:31:00.435Z,2.42
2022-08-05T14:33:27.757Z,1.58
2022-08-05T14:36:14.524Z,1.70
2022-08-05T14:38:41.963Z,2.53
2022-08-05T14:41:08.770Z,2.88
2022-08-05T14:43:59.722Z,3.70
2022-08-05T14:46:28.846Z,2.03
2022-08-05T14:48:59.633Z,2.80
2022-08-05T14:51:34.626Z,3.72
2022-08-05T14:54:26.351Z,2.42
2022-08-05T14:56:48.781Z,2.38
2022-08-05T14:59:18.275Z,2.53
2022-08-05T15:01:49.633Z,2.15
2022-08-05T15:04:22.211Z,4.35
2022-08-05T15:06:51.080Z,5.25
2022-08-05T15:09:52.096Z,4.10
2022-08-05T15:12:09.099Z,1.83
2022-08-05T15:14:48.393Z,2.88
2022-08-05T15:17:44.646Z,1.15
2022-08-05T15:20:06.011Z,2.30
2022-08-05T15:22:32.916Z,1.95
2022-08-05T15:25:00.473Z,4.75
2022-08-05T15:27:42.986Z,3.75
2022-08-05T15:30:19.424Z,3.65
2022-08-05T15:32:46.621Z,3.30
2022-08-05T15:35:13.419Z,1.60
2022-08-05T15:38:32.532Z,3.22
2022-08-05T15:41:04.791Z,5.95
2022-08-05T15:43:20.625Z,2.63
2022-08-05T15:45:48.078Z,1.70
2022-08-05T15:48:28.273Z,3.05
2022-08-05T15:50:55.100Z,1.73
2022-08-05T15:53:23.294Z,2.45
2022-08-05T15:56:02.884Z,2.53
2022-08-05T15:58:36.847Z,3.38
2022-08-05T16:01:16.113Z,2.78
2022-08-05T16:03:43.910Z,1.75
2022-08-05T16:06:11.382Z,1.25
2022-08-05T16:08:38.895Z,2.00
2022-08-05T16:11:08.029Z,1.98
2022-08-05T16:13:35.349Z,3.17
2022-08-05T16:16:05.925Z,3.03
2022-08-05T16:18:33.288Z,2.70
2022-08-05T16:21:04.571Z,4.43
2022-08-05T16:23:53.191Z,1.30
2022-08-05T16:26:22.906Z,2.05
2022-08-05T16:31:22.188Z,4.90
2022-08-05T16:33:49.909Z,3.72
2022-08-05T16:36:20.386Z,1.92
2022-08-05T16:38:54.818Z,4.50
2022-08-05T16:42:13.748Z,2.15
2022-08-05T16:44:14.793Z,5.68
2022-08-05T16:46:55.893Z,5.63
2022-08-05T16:49:23.440Z,3.03
2022-08-05T16:51:51.133Z,5.75
2022-08-05T16:54:23.963Z,4.25
2022-08-05T16:56:55.595Z,3.10
2022-08-05T16:59:22.892Z,3.28
2022-08-05T17:01:54.588Z,2.72
2022-08-05T17:04:26.274Z,1.15
2022-08-05T17:06:55.360Z,2.30
2022-08-05T17:09:23.199Z,1.27
2022-08-05T17:11:56.064Z,3.35
2022-08-05T17:14:34.134Z,4.60
2022-08-05T17:17:05.386Z,4.32
2022-08-05T17:19:32.222Z,3.95
2022-08-05T17:22:00.948Z,2.83
2022-08-05T17:24:38.518Z,3.45
2022-08-05T17:27:09.257Z,2.92
2022-08-05T17:29:41.208Z,1.63
2022-08-05T17:32:11.461Z,2.22
2022-08-05T17:34:43.604Z,3.50
2022-08-05T17:37:29.490Z,1.27
2022-08-05T17:39:57.546Z,1.08
2022-08-05T17:42:31.945Z,2.60
2022-08-05T17:44:59.187Z,3.95
2022-08-05T17:47:27.301Z,4.65
2022-08-05T17:50:04.328Z,1.35
2022-08-05T17:52:52.663Z,5.60
2022-08-05T17:55:20.343Z,3.17
2022-08-05T17:57:48.656Z,1.13
2022-08-05T18:00:17.573Z,2.53
2022-08-05T18:02:47.092Z,2.85
2022-08-05T18:05:16.831Z,2.67
2022-08-05T18:07:44.498Z,2.10
2022-08-05T18:10:14.145Z,2.67
2022-08-05T18:12:49.560Z,3.28
2022-08-05T18:15:16.431Z,0.65
2022-08-05T18:18:01.309Z,1.08
2022-08-05T18:20:31.963Z,3.22
2022-08-05T18:23:04.876Z,1.05
2022-08-05T18:25:38.771Z,4.60
2022-08-05T18:28:06.963Z,5.28
2022-08-05T18:30:35.275Z,3.90
2022-08-05T18:33:06.241Z,1.27
2022-08-05T18:35:59.856Z,0.77
2022-08-05T18:38:25.914Z,1.30
2022-08-05T18:41:54.149Z,0.80
2022-08-05T18:43:43.038Z,0.80
2022-08-05T18:46:15.800Z,1.83
2022-08-05T18:48:51.884Z,1.23
2022-08-05T18:52:04.929Z,1.42
2022-08-05T18:54:31.694Z,0.82
2022-08-05T18:57:02.004Z,0.75
2022-08-05T18:59:44.438Z,0.55
2022-08-05T19:02:27.217Z,1.08
2022-08-05T19:06:06.371Z,2.15
2022-08-05T19:07:55.176Z,0.50
2022-08-05T19:10:28.212Z,1.90
2022-08-05T19:12:56.863Z,1.65
2022-08-05T19:15:57.935Z,2.63
2022-08-05T19:18:20.949Z,1.58
2022-08-05T19:20:53.681Z,0.95
2022-08-05T19:24:04.170Z,0.50
2022-08-05T19:26:08.575Z,2.05
2022-08-05T19:28:41.799Z,0.75
2022-08-05T19:31:13.401Z,1.23
2022-08-05T19:33:48.302Z,2.13
2022-08-05T19:36:26.544Z,1.70
2022-08-05T19:39:00.736Z,0.77
2022-08-05T19:41:58.263Z,2.33
2022-08-05T19:44:16.959Z,0.50
2022-08-05T19:46:45.442Z,0.88
2022-08-05T19:49:16.850Z,3.78
2022-08-05T19:52:08.374Z,1.35
2022-08-05T19:54:34.911Z,1.95
2022-08-05T19:57:06.750Z,0.30
2022-08-05T20:02:25.969Z,3.30
2022-08-05T20:04:53.692Z,1.55
2022-08-05T20:07:38.935Z,0.55
2022-08-05T20:10:13.579Z,1.08
2022-08-05T20:12:45.948Z,1.13
2022-08-05T20:15:22.964Z,0.77
2022-08-05T20:18:04.349Z,1.42
2022-08-05T20:20:38.572Z,0.80
2022-08-05T20:23:05.767Z,1.33
2022-08-05T20:25:39.965Z,1.17
2022-08-05T20:28:08.300Z,0.55
2022-08-05T20:33:08.677Z,0.77
2022-08-05T20:35:40.469Z,0.25
2022-08-05T20:38:22.639Z,0.20
2022-08-05T20:40:55.550Z,0.55
2022-08-05T20:43:57.949Z,4.13
2022-08-05T20:46:18.458Z,4.35
2022-08-05T20:48:52.025Z,3.80
2022-08-05T20:51:18.851Z,3.10
2022-08-05T20:53:56.991Z,1.45
2022-08-05T20:56:31.876Z,1.02
2022-08-05T20:59:14.365Z,2.75
2022-08-05T21:01:46.661Z,0.60
2022-08-05T21:04:14.035Z,0.45
2022-08-05T21:06:45.608Z,0.75
2022-08-05T21:09:14.225Z,2.28
2022-08-05T21:12:10.756Z,4.75
2022-08-05T21:14:32.003Z,1.05
2022-08-05T21:17:05.849Z,0.65
2022-08-05T21:19:47.122Z,5.28
2022-08-05T21:22:23.272Z,0.95
2022-08-05T21:24:52.566Z,1.95
2022-08-05T21:27:25.180Z,1.08
2022-08-05T21:29:56.269Z,0.47
2022-08-05T21:32:26.828Z,0.63
2022-08-05T21:35:16.723Z,5.90
2022-08-05T21:37:42.855Z,0.52
2022-08-05T21:40:14.365Z,0.65
2022-08-05T21:42:44.577Z,2.00
2022-08-05T21:45:11.867Z,1.83
2022-08-05T21:47:56.018Z,0.88
2022-08-05T21:50:26.214Z,0.40
2022-08-05T21:52:53.654Z,5.05
2022-08-05T21:56:04.169Z,0.60
2022-08-05T21:58:12.814Z,1.80
2022-08-05T22:00:40.080Z,2.72
2022-08-05T22:03:09.751Z,0.43
2022-08-05T22:05:49.267Z,0.85
2022-08-05T22:08:22.268Z,0.68
2022-08-05T22:10:51.674Z,3.50
2022-08-05T22:14:05.680Z,1.15
2022-08-05T22:16:32.086Z,1.27
2022-08-05T22:18:54.129Z,0.20
2022-08-05T22:21:25.593Z,3.33
2022-08-05T22:24:13.169Z,2.55
2022-08-05T22:27:17.523Z,2.40
2022-08-05T22:29:44.556Z,1.65
2022-08-05T22:32:12.782Z,2.35
2022-08-05T22:34:44.575Z,2.83
2022-08-05T22:37:12.869Z,4.38
2022-08-05T22:39:39.845Z,0.93
2022-08-05T22:42:12.448Z,1.45
2022-08-05T22:44:48.431Z,2.05
2022-08-05T22:47:29.406Z,0.57
2022-08-05T22:50:20.078Z,2.92
2022-08-05T22:52:47.001Z,1.40
2022-08-05T22:55:19.432Z,3.92
2022-08-05T22:57:49.023Z,5.18
2022-08-05T23:00:18.466Z,1.65
2022-08-05T23:02:47.999Z,0.45
2022-08-05T23:05:15.984Z,1.80
2022-08-05T23:07:44.869Z,0.93
2022-08-05T23:10:12.879Z,4.28
2022-08-05T23:12:39.751Z,1.63
2022-08-05T23:15:10.500Z,5.30
2022-08-05T23:18:00.644Z,2.85
2022-08-05T23:20:25.791Z,2.05
2022-08-05T23:22:55.629Z,1.73
2022-08-05T23:25:51.635Z,3.25
2022-08-05T23:28:11.943Z,3.85
2022-08-05T23:30:39.619Z,2.42
2022-08-05T23:33:16.046Z,1.20
2022-08-05T23:35:45.854Z,1.08
2022-08-05T23:38:12.672Z,0.30
2022-08-05T23:40:42.411Z,2.35
2022-08-05T23:43:25.685Z,1.38
2022-08-05T23:46:20.997Z,0.60
2022-08-05T23:49:00.790Z,0.40
2022-08-05T23:51:54.902Z,0.73
2022-08-05T23:54:30.140Z,3.28
2022-08-05T23:57:03.841Z,0.40
